sensor_id;sensor_type;location;lat;lon;timestamp;temperature;humidity
38860;DHT22;24609;48.316;16.174;2022-07-29T00:02:12;21.10;99.90
38860;DHT22;24609;48.316;16.174;2022-07-29T00:04:37;20.90;99.90
38860;DHT22;24609;48.316;16.174;2022-07-29T00:07:03;20.60;1.00
38860;DHT22;24609;48.316;16.174;2022-07-29T00:09:30;20.40;1.00
38860;DHT22;24609;48.316;16.174;2022-07-29T00:11:59;20.20;99.90
38860;DHT22;24609;48.316;16.174;2022-07-29T00:14:25;20.10;99.90
38860;DHT22;24609;48.316;16.174;2022-07-29T00:16:51;19.90;1.00
38860;DHT22;24609;48.316;16.174;2022-07-29T00:19:17;19.80;1.00
38860;DHT22;24609;48.316;16.174;2022-07-29T00:21:42;19.70;99.90
38860;DHT22;24609;48.316;16.174;2022-07-29T00:24:08;19.60;1.00
38860;DHT22;24609;48.316;16.174;2022-07-29T00:26:34;19.60;99.90
38860;DHT22;24609;48.316;16.174;2022-07-29T00:29:01;19.60;1.00
38860;DHT22;24609;48.316;16.174;2022-07-29T00:31:27;19.50;1.00
38860;DHT22;24609;48.316;16.174;2022-07-29T00:33:54;19.40;95.40
38860;DHT22;24609;48.316;16.174;2022-07-29T00:36:20;19.40;99.90
38860;DHT22;24609;48.316;16.174;2022-07-29T00:38:50;19.30;99.90
38860;DHT22;24609;48.316;16.174;2022-07-29T00:41:17;19.30;1.00
38860;DHT22;24609;48.316;16.174;2022-07-29T00:43:43;19.10;99.90
38860;DHT22;24609;48.316;16.174;2022-07-29T00:46:09;19.10;37.60
38860;DHT22;24609;48.316;16.174;2022-07-29T00:48:35;19.10;1.00
38860;DHT22;24609;48.316;16.174;2022-07-29T00:51:03;19.00;99.90
38860;DHT22;24609;48.316;16.174;2022-07-29T00:53:30;18.90;99.90
38860;DHT22;24609;48.316;16.174;2022-07-29T00:55:56;18.90;99.90
38860;DHT22;24609;48.316;16.174;2022-07-29T00:58:22;18.90;1.00
38860;DHT22;24609;48.316;16.174;2022-07-29T01:00:48;18.90;1.00
38860;DHT22;24609;48.316;16.174;2022-07-29T01:03:14;18.90;1.00
38860;DHT22;24609;48.316;16.174;2022-07-29T01:05:41;18.80;1.00
38860;DHT22;24609;48.316;16.174;2022-07-29T01:08:08;18.70;99.90
38860;DHT22;24609;48.316;16.174;2022-07-29T01:10:36;18.60;99.90
38860;DHT22;24609;48.316;16.174;2022-07-29T01:13:03;18.50;1.00
38860;DHT22;24609;48.316;16.174;2022-07-29T01:15:29;18.50;99.90
38860;DHT22;24609;48.316;16.174;2022-07-29T01:18:05;18.30;99.90
38860;DHT22;24609;48.316;16.174;2022-07-29T01:29:06;18.10;1.00
38860;DHT22;24609;48.316;16.174;2022-07-29T01:31:48;18.00;1.00
38860;DHT22;24609;48.316;16.174;2022-07-29T01:37:19;17.90;30.80
38860;DHT22;24609;48.316;16.174;2022-07-29T01:39:48;17.80;41.10
38860;DHT22;24609;48.316;16.174;2022-07-29T01:42:25;17.70;75.90
38860;DHT22;24609;48.316;16.174;2022-07-29T01:48:15;17.50;99.90
38860;DHT22;24609;48.316;16.174;2022-07-29T01:51:00;17.50;99.90
38860;DHT22;24609;48.316;16.174;2022-07-29T01:53:41;17.30;99.90
38860;DHT22;24609;48.316;16.174;2022-07-29T01:56:09;17.20;99.90
38860;DHT22;24609;48.316;16.174;2022-07-29T01:58:38;17.20;99.90
38860;DHT22;24609;48.316;16.174;2022-07-29T02:01:06;17.10;99.90
38860;DHT22;24609;48.316;16.174;2022-07-29T02:03:35;17.00;99.90
38860;DHT22;24609;48.316;16.174;2022-07-29T02:06:03;17.00;99.90
38860;DHT22;24609;48.316;16.174;2022-07-29T02:08:30;17.00;99.90
38860;DHT22;24609;48.316;16.174;2022-07-29T02:10:58;16.90;99.90
38860;DHT22;24609;48.316;16.174;2022-07-29T02:13:26;16.90;99.90
38860;DHT22;24609;48.316;16.174;2022-07-29T02:15:53;16.90;99.90
38860;DHT22;24609;48.316;16.174;2022-07-29T02:18:22;16.80;99.90
38860;DHT22;24609;48.316;16.174;2022-07-29T02:20:52;16.80;99.90
38860;DHT22;24609;48.316;16.174;2022-07-29T02:23:19;16.70;99.90
38860;DHT22;24609;48.316;16.174;2022-07-29T02:25:50;16.60;99.90
38860;DHT22;24609;48.316;16.174;2022-07-29T02:28:17;16.50;99.90
38860;DHT22;24609;48.316;16.174;2022-07-29T02:30:44;16.50;99.90
38860;DHT22;24609;48.316;16.174;2022-07-29T02:33:13;16.40;99.90
38860;DHT22;24609;48.316;16.174;2022-07-29T02:35:41;16.40;99.90
38860;DHT22;24609;48.316;16.174;2022-07-29T02:38:10;16.30;99.90
38860;DHT22;24609;48.316;16.174;2022-07-29T02:40:56;16.30;99.90
38860;DHT22;24609;48.316;16.174;2022-07-29T02:43:24;16.40;99.90
38860;DHT22;24609;48.316;16.174;2022-07-29T02:45:53;16.40;99.90
38860;DHT22;24609;48.316;16.174;2022-07-29T02:48:25;16.40;99.90
38860;DHT22;24609;48.316;16.174;2022-07-29T02:50:57;16.40;99.90
38860;DHT22;24609;48.316;16.174;2022-07-29T02:53:26;16.30;99.90
38860;DHT22;24609;48.316;16.174;2022-07-29T02:55:58;16.20;99.90
38860;DHT22;24609;48.316;16.174;2022-07-29T03:01:03;16.10;99.90
38860;DHT22;24609;48.316;16.174;2022-07-29T03:03:34;16.20;99.90
38860;DHT22;24609;48.316;16.174;2022-07-29T03:06:01;16.20;99.90
38860;DHT22;24609;48.316;16.174;2022-07-29T03:08:27;16.00;99.90
38860;DHT22;24609;48.316;16.174;2022-07-29T03:10:54;15.90;99.90
38860;DHT22;24609;48.316;16.174;2022-07-29T03:13:20;15.90;99.90
38860;DHT22;24609;48.316;16.174;2022-07-29T03:15:47;15.90;99.90
38860;DHT22;24609;48.316;16.174;2022-07-29T03:18:14;15.90;99.90
38860;DHT22;24609;48.316;16.174;2022-07-29T03:20:40;15.90;99.90
38860;DHT22;24609;48.316;16.174;2022-07-29T03:23:07;15.90;99.90
38860;DHT22;24609;48.316;16.174;2022-07-29T03:25:33;15.90;99.90
38860;DHT22;24609;48.316;16.174;2022-07-29T03:27:59;15.90;99.90
38860;DHT22;24609;48.316;16.174;2022-07-29T03:30:25;15.90;99.90
38860;DHT22;24609;48.316;16.174;2022-07-29T03:32:51;15.80;99.90
38860;DHT22;24609;48.316;16.174;2022-07-29T03:35:17;15.80;99.90
38860;DHT22;24609;48.316;16.174;2022-07-29T03:37:44;15.80;99.90
38860;DHT22;24609;48.316;16.174;2022-07-29T03:40:11;15.90;99.90
38860;DHT22;24609;48.316;16.174;2022-07-29T03:42:39;15.70;99.90
38860;DHT22;24609;48.316;16.174;2022-07-29T03:45:07;15.40;99.90
38860;DHT22;24609;48.316;16.174;2022-07-29T03:47:39;15.50;99.90
38860;DHT22;24609;48.316;16.174;2022-07-29T03:50:07;15.50;99.90
38860;DHT22;24609;48.316;16.174;2022-07-29T03:52:34;15.50;99.90
38860;DHT22;24609;48.316;16.174;2022-07-29T03:55:01;15.60;99.90
38860;DHT22;24609;48.316;16.174;2022-07-29T03:57:28;15.60;99.90
38860;DHT22;24609;48.316;16.174;2022-07-29T03:59:56;15.60;99.90
38860;DHT22;24609;48.316;16.174;2022-07-29T04:02:22;15.70;99.90
38860;DHT22;24609;48.316;16.174;2022-07-29T04:04:48;15.80;99.90
38860;DHT22;24609;48.316;16.174;2022-07-29T04:07:15;15.90;99.90
38860;DHT22;24609;48.316;16.174;2022-07-29T04:09:41;15.90;99.90
38860;DHT22;24609;48.316;16.174;2022-07-29T04:12:07;16.00;99.90
38860;DHT22;24609;48.316;16.174;2022-07-29T04:14:34;16.20;99.90
38860;DHT22;24609;48.316;16.174;2022-07-29T04:17:01;16.40;99.90
38860;DHT22;24609;48.316;16.174;2022-07-29T04:19:27;16.60;99.90
38860;DHT22;24609;48.316;16.174;2022-07-29T04:21:52;16.80;99.90
38860;DHT22;24609;48.316;16.174;2022-07-29T04:24:18;16.90;99.90
38860;DHT22;24609;48.316;16.174;2022-07-29T04:26:46;17.10;99.90
38860;DHT22;24609;48.316;16.174;2022-07-29T04:29:12;17.20;99.90
38860;DHT22;24609;48.316;16.174;2022-07-29T04:31:42;17.30;99.90
38860;DHT22;24609;48.316;16.174;2022-07-29T04:34:09;17.50;99.90
38860;DHT22;24609;48.316;16.174;2022-07-29T04:36:35;17.60;99.90
38860;DHT22;24609;48.316;16.174;2022-07-29T04:39:01;17.70;99.90
38860;DHT22;24609;48.316;16.174;2022-07-29T04:41:27;17.80;99.90
38860;DHT22;24609;48.316;16.174;2022-07-29T04:43:53;18.10;99.90
38860;DHT22;24609;48.316;16.174;2022-07-29T04:46:20;18.30;99.90
38860;DHT22;24609;48.316;16.174;2022-07-29T04:48:46;18.30;99.90
38860;DHT22;24609;48.316;16.174;2022-07-29T04:51:13;18.50;99.90
38860;DHT22;24609;48.316;16.174;2022-07-29T04:53:39;18.70;99.90
38860;DHT22;24609;48.316;16.174;2022-07-29T04:56:05;19.00;99.90
38860;DHT22;24609;48.316;16.174;2022-07-29T04:58:30;19.10;99.90
38860;DHT22;24609;48.316;16.174;2022-07-29T05:00:56;19.20;99.90
38860;DHT22;24609;48.316;16.174;2022-07-29T05:03:22;19.30;99.90
38860;DHT22;24609;48.316;16.174;2022-07-29T05:05:48;19.30;99.90
38860;DHT22;24609;48.316;16.174;2022-07-29T05:08:14;19.60;91.70
38860;DHT22;24609;48.316;16.174;2022-07-29T05:10:39;19.70;39.90
38860;DHT22;24609;48.316;16.174;2022-07-29T05:13:06;19.70;16.40
38860;DHT22;24609;48.316;16.174;2022-07-29T05:15:33;19.90;19.30
38860;DHT22;24609;48.316;16.174;2022-07-29T05:17:59;20.00;1.00
38860;DHT22;24609;48.316;16.174;2022-07-29T05:20:25;20.00;5.10
38860;DHT22;24609;48.316;16.174;2022-07-29T05:22:57;20.10;1.00
38860;DHT22;24609;48.316;16.174;2022-07-29T05:25:24;20.30;1.00
38860;DHT22;24609;48.316;16.174;2022-07-29T05:27:49;20.20;1.00
38860;DHT22;24609;48.316;16.174;2022-07-29T05:30:15;20.20;1.00
38860;DHT22;24609;48.316;16.174;2022-07-29T05:32:41;20.40;1.00
38860;DHT22;24609;48.316;16.174;2022-07-29T05:35:07;20.40;1.00
38860;DHT22;24609;48.316;16.174;2022-07-29T05:37:34;20.70;1.00
38860;DHT22;24609;48.316;16.174;2022-07-29T05:39:59;20.90;1.00
38860;DHT22;24609;48.316;16.174;2022-07-29T05:42:25;21.00;1.00
38860;DHT22;24609;48.316;16.174;2022-07-29T05:44:52;21.40;1.00
38860;DHT22;24609;48.316;16.174;2022-07-29T05:47:18;22.30;99.90
38860;DHT22;24609;48.316;16.174;2022-07-29T05:49:44;22.40;1.00
38860;DHT22;24609;48.316;16.174;2022-07-29T05:52:09;22.20;99.10
38860;DHT22;24609;48.316;16.174;2022-07-29T05:54:35;22.20;99.90
38860;DHT22;24609;48.316;16.174;2022-07-29T05:57:02;22.60;99.90
38860;DHT22;24609;48.316;16.174;2022-07-29T05:59:28;22.90;99.90
38860;DHT22;24609;48.316;16.174;2022-07-29T06:01:54;23.10;99.90
38860;DHT22;24609;48.316;16.174;2022-07-29T06:04:20;23.50;99.90
38860;DHT22;24609;48.316;16.174;2022-07-29T06:06:46;23.70;99.90
38860;DHT22;24609;48.316;16.174;2022-07-29T06:09:11;23.90;1.00
38860;DHT22;24609;48.316;16.174;2022-07-29T06:11:37;25.10;99.90
38860;DHT22;24609;48.316;16.174;2022-07-29T06:14:03;25.40;1.00
38860;DHT22;24609;48.316;16.174;2022-07-29T06:16:29;24.60;1.00
38860;DHT22;24609;48.316;16.174;2022-07-29T06:18:54;24.10;99.90
38860;DHT22;24609;48.316;16.174;2022-07-29T06:21:20;23.60;99.90
38860;DHT22;24609;48.316;16.174;2022-07-29T06:23:46;22.90;1.00
38860;DHT22;24609;48.316;16.174;2022-07-29T06:26:11;22.90;5.30
38860;DHT22;24609;48.316;16.174;2022-07-29T06:28:37;22.80;99.90
38860;DHT22;24609;48.316;16.174;2022-07-29T06:31:03;22.40;1.00
38860;DHT22;24609;48.316;16.174;2022-07-29T06:33:29;22.50;1.00
38860;DHT22;24609;48.316;16.174;2022-07-29T06:35:54;22.60;99.90
38860;DHT22;24609;48.316;16.174;2022-07-29T06:38:20;22.60;99.90
38860;DHT22;24609;48.316;16.174;2022-07-29T06:40:46;22.40;99.90
38860;DHT22;24609;48.316;16.174;2022-07-29T06:43:41;22.20;99.90
38860;DHT22;24609;48.316;16.174;2022-07-29T06:46:09;22.10;1.00
38860;DHT22;24609;48.316;16.174;2022-07-29T06:48:35;22.10;99.90
38860;DHT22;24609;48.316;16.174;2022-07-29T06:51:03;22.00;99.90
38860;DHT22;24609;48.316;16.174;2022-07-29T06:53:30;22.20;99.90
38860;DHT22;24609;48.316;16.174;2022-07-29T06:55:57;22.20;99.90
38860;DHT22;24609;48.316;16.174;2022-07-29T06:58:27;22.20;1.00
38860;DHT22;24609;48.316;16.174;2022-07-29T07:00:53;22.10;99.90
38860;DHT22;24609;48.316;16.174;2022-07-29T07:03:19;22.30;99.90
38860;DHT22;24609;48.316;16.174;2022-07-29T07:05:45;22.00;1.00
38860;DHT22;24609;48.316;16.174;2022-07-29T07:08:12;22.20;19.30
38860;DHT22;24609;48.316;16.174;2022-07-29T07:10:39;22.40;99.90
38860;DHT22;24609;48.316;16.174;2022-07-29T07:13:05;22.40;99.90
38860;DHT22;24609;48.316;16.174;2022-07-29T07:15:31;22.60;99.90
38860;DHT22;24609;48.316;16.174;2022-07-29T07:17:57;22.90;85.70
38860;DHT22;24609;48.316;16.174;2022-07-29T07:20:25;23.00;1.00
38860;DHT22;24609;48.316;16.174;2022-07-29T07:22:51;23.20;1.00
38860;DHT22;24609;48.316;16.174;2022-07-29T07:25:17;23.20;99.90
38860;DHT22;24609;48.316;16.174;2022-07-29T07:27:46;23.10;99.90
38860;DHT22;24609;48.316;16.174;2022-07-29T07:30:11;23.00;99.90
38860;DHT22;24609;48.316;16.174;2022-07-29T07:32:37;22.80;99.90
38860;DHT22;24609;48.316;16.174;2022-07-29T07:35:05;22.80;99.90
38860;DHT22;24609;48.316;16.174;2022-07-29T07:37:32;23.20;99.90
38860;DHT22;24609;48.316;16.174;2022-07-29T07:39:57;23.20;29.60
38860;DHT22;24609;48.316;16.174;2022-07-29T07:42:23;23.20;1.00
38860;DHT22;24609;48.316;16.174;2022-07-29T07:44:49;23.30;1.00
38860;DHT22;24609;48.316;16.174;2022-07-29T07:47:15;23.50;1.00
38860;DHT22;24609;48.316;16.174;2022-07-29T07:49:46;23.80;99.90
38860;DHT22;24609;48.316;16.174;2022-07-29T07:52:12;23.80;99.90
38860;DHT22;24609;48.316;16.174;2022-07-29T07:54:38;24.00;67.40
38860;DHT22;24609;48.316;16.174;2022-07-29T07:57:03;24.00;1.00
38860;DHT22;24609;48.316;16.174;2022-07-29T07:59:29;24.30;1.00
38860;DHT22;24609;48.316;16.174;2022-07-29T08:01:55;24.30;1.00
38860;DHT22;24609;48.316;16.174;2022-07-29T08:04:20;24.90;99.90
38860;DHT22;24609;48.316;16.174;2022-07-29T08:06:46;26.10;99.90
38860;DHT22;24609;48.316;16.174;2022-07-29T08:09:12;27.00;50.00
38860;DHT22;24609;48.316;16.174;2022-07-29T08:11:38;27.30;1.00
38860;DHT22;24609;48.316;16.174;2022-07-29T08:14:03;27.00;1.00
38860;DHT22;24609;48.316;16.174;2022-07-29T08:16:29;27.50;1.00
38860;DHT22;24609;48.316;16.174;2022-07-29T08:18:55;28.50;99.90
38860;DHT22;24609;48.316;16.174;2022-07-29T08:21:23;28.80;99.90
38860;DHT22;24609;48.316;16.174;2022-07-29T08:23:49;28.90;99.90
38860;DHT22;24609;48.316;16.174;2022-07-29T08:26:21;29.20;99.90
38860;DHT22;24609;48.316;16.174;2022-07-29T08:28:48;31.00;85.80
38860;DHT22;24609;48.316;16.174;2022-07-29T08:31:17;31.00;1.00
38860;DHT22;24609;48.316;16.174;2022-07-29T08:33:43;33.60;1.00
38860;DHT22;24609;48.316;16.174;2022-07-29T08:36:09;35.20;99.90
38860;DHT22;24609;48.316;16.174;2022-07-29T08:38:34;32.60;99.90
38860;DHT22;24609;48.316;16.174;2022-07-29T08:41:01;32.60;99.90
38860;DHT22;24609;48.316;16.174;2022-07-29T08:43:28;33.00;99.90
38860;DHT22;24609;48.316;16.174;2022-07-29T08:45:54;32.80;99.90
38860;DHT22;24609;48.316;16.174;2022-07-29T08:48:22;31.40;99.90
38860;DHT22;24609;48.316;16.174;2022-07-29T08:50:50;30.70;99.90
38860;DHT22;24609;48.316;16.174;2022-07-29T08:53:17;29.50;99.90
38860;DHT22;24609;48.316;16.174;2022-07-29T08:55:45;28.00;99.90
38860;DHT22;24609;48.316;16.174;2022-07-29T08:58:12;26.90;99.90
38860;DHT22;24609;48.316;16.174;2022-07-29T09:00:45;26.30;1.00
38860;DHT22;24609;48.316;16.174;2022-07-29T09:03:16;26.40;1.00
38860;DHT22;24609;48.316;16.174;2022-07-29T09:05:45;26.50;1.00
38860;DHT22;24609;48.316;16.174;2022-07-29T09:08:13;27.10;1.00
38860;DHT22;24609;48.316;16.174;2022-07-29T09:10:39;27.90;1.00
38860;DHT22;24609;48.316;16.174;2022-07-29T09:13:05;28.70;1.00
38860;DHT22;24609;48.316;16.174;2022-07-29T09:15:31;30.90;1.00
38860;DHT22;24609;48.316;16.174;2022-07-29T09:17:57;31.00;1.00
38860;DHT22;24609;48.316;16.174;2022-07-29T09:20:24;31.40;99.90
38860;DHT22;24609;48.316;16.174;2022-07-29T09:22:51;31.90;99.90
38860;DHT22;24609;48.316;16.174;2022-07-29T09:25:38;31.80;99.90
38860;DHT22;24609;48.316;16.174;2022-07-29T09:28:08;31.10;99.90
38860;DHT22;24609;48.316;16.174;2022-07-29T09:30:35;30.80;99.90
38860;DHT22;24609;48.316;16.174;2022-07-29T09:33:02;30.40;99.90
38860;DHT22;24609;48.316;16.174;2022-07-29T09:35:29;29.90;99.90
38860;DHT22;24609;48.316;16.174;2022-07-29T09:37:56;29.50;99.90
38860;DHT22;24609;48.316;16.174;2022-07-29T09:40:25;29.70;99.90
38860;DHT22;24609;48.316;16.174;2022-07-29T09:42:52;29.30;99.90
38860;DHT22;24609;48.316;16.174;2022-07-29T09:45:33;29.20;99.90
38860;DHT22;24609;48.316;16.174;2022-07-29T09:47:59;28.70;99.90
38860;DHT22;24609;48.316;16.174;2022-07-29T09:50:39;28.10;99.90
38860;DHT22;24609;48.316;16.174;2022-07-29T09:53:05;27.80;99.90
38860;DHT22;24609;48.316;16.174;2022-07-29T09:55:31;27.20;1.00
38860;DHT22;24609;48.316;16.174;2022-07-29T09:58:20;26.90;1.00
38860;DHT22;24609;48.316;16.174;2022-07-29T10:00:47;27.00;1.00
38860;DHT22;24609;48.316;16.174;2022-07-29T10:03:15;26.70;1.00
38860;DHT22;24609;48.316;16.174;2022-07-29T10:05:41;26.80;1.00
38860;DHT22;24609;48.316;16.174;2022-07-29T10:08:08;26.60;1.00
38860;DHT22;24609;48.316;16.174;2022-07-29T10:10:36;26.10;1.00
38860;DHT22;24609;48.316;16.174;2022-07-29T10:13:09;26.90;1.00
38860;DHT22;24609;48.316;16.174;2022-07-29T10:15:36;27.20;1.00
38860;DHT22;24609;48.316;16.174;2022-07-29T10:18:04;27.70;1.00
38860;DHT22;24609;48.316;16.174;2022-07-29T10:20:30;27.90;1.00
38860;DHT22;24609;48.316;16.174;2022-07-29T10:22:56;27.70;1.00
38860;DHT22;24609;48.316;16.174;2022-07-29T10:25:23;28.10;1.00
38860;DHT22;24609;48.316;16.174;2022-07-29T10:27:50;28.40;1.00
38860;DHT22;24609;48.316;16.174;2022-07-29T10:30:20;28.90;1.00
38860;DHT22;24609;48.316;16.174;2022-07-29T10:44:25;29.90;1.00
38860;DHT22;24609;48.316;16.174;2022-07-29T10:46:53;32.20;1.00
38860;DHT22;24609;48.316;16.174;2022-07-29T10:49:26;34.50;99.90
38860;DHT22;24609;48.316;16.174;2022-07-29T10:57:28;37.60;99.90
38860;DHT22;24609;48.316;16.174;2022-07-29T11:04:59;32.90;96.60
38860;DHT22;24609;48.316;16.174;2022-07-29T11:07:26;33.90;99.90
38860;DHT22;24609;48.316;16.174;2022-07-29T11:15:01;34.00;99.90
38860;DHT22;24609;48.316;16.174;2022-07-29T11:17:28;34.20;99.90
38860;DHT22;24609;48.316;16.174;2022-07-29T11:22:58;32.60;99.90
38860;DHT22;24609;48.316;16.174;2022-07-29T11:25:24;33.40;99.90
38860;DHT22;24609;48.316;16.174;2022-07-29T11:27:51;33.80;99.90
38860;DHT22;24609;48.316;16.174;2022-07-29T11:30:18;37.20;99.90
38860;DHT22;24609;48.316;16.174;2022-07-29T11:32:44;37.50;96.80
38860;DHT22;24609;48.316;16.174;2022-07-29T11:35:17;36.80;61.40
38860;DHT22;24609;48.316;16.174;2022-07-29T11:40:29;35.90;69.70
38860;DHT22;24609;48.316;16.174;2022-07-29T11:42:55;34.00;62.40
38860;DHT22;24609;48.316;16.174;2022-07-29T11:45:23;34.10;94.80
38860;DHT22;24609;48.316;16.174;2022-07-29T11:47:50;36.60;91.90
38860;DHT22;24609;48.316;16.174;2022-07-29T11:50:36;36.60;59.30
38860;DHT22;24609;48.316;16.174;2022-07-29T11:53:09;37.60;61.40
38860;DHT22;24609;48.316;16.174;2022-07-29T11:55:40;38.70;51.40
38860;DHT22;24609;48.316;16.174;2022-07-29T11:58:07;39.00;46.00
38860;DHT22;24609;48.316;16.174;2022-07-29T12:00:39;40.50;31.40
38860;DHT22;24609;48.316;16.174;2022-07-29T12:03:10;41.00;1.00
38860;DHT22;24609;48.316;16.174;2022-07-29T12:05:41;42.30;1.00
38860;DHT22;24609;48.316;16.174;2022-07-29T12:08:10;43.40;1.00
38860;DHT22;24609;48.316;16.174;2022-07-29T12:10:36;41.10;1.00
38860;DHT22;24609;48.316;16.174;2022-07-29T12:13:02;40.70;1.00
38860;DHT22;24609;48.316;16.174;2022-07-29T12:15:28;39.00;1.00
38860;DHT22;24609;48.316;16.174;2022-07-29T12:17:53;36.50;1.00
38860;DHT22;24609;48.316;16.174;2022-07-29T12:20:28;35.80;1.00
38860;DHT22;24609;48.316;16.174;2022-07-29T12:22:55;36.10;1.00
38860;DHT22;24609;48.316;16.174;2022-07-29T12:25:22;38.20;1.00
38860;DHT22;24609;48.316;16.174;2022-07-29T12:27:58;37.30;1.00
38860;DHT22;24609;48.316;16.174;2022-07-29T12:30:38;36.50;1.00
38860;DHT22;24609;48.316;16.174;2022-07-29T12:33:17;36.70;1.00
38860;DHT22;24609;48.316;16.174;2022-07-29T12:35:45;34.10;1.00
38860;DHT22;24609;48.316;16.174;2022-07-29T12:38:12;32.50;1.00
38860;DHT22;24609;48.316;16.174;2022-07-29T12:40:38;31.60;1.00
38860;DHT22;24609;48.316;16.174;2022-07-29T12:43:15;30.90;1.00
38860;DHT22;24609;48.316;16.174;2022-07-29T12:45:44;30.70;21.80
38860;DHT22;24609;48.316;16.174;2022-07-29T12:48:10;30.90;38.10
38860;DHT22;24609;48.316;16.174;2022-07-29T12:50:51;30.60;37.00
38860;DHT22;24609;48.316;16.174;2022-07-29T12:53:18;30.90;70.70
38860;DHT22;24609;48.316;16.174;2022-07-29T12:55:46;30.60;60.30
38860;DHT22;24609;48.316;16.174;2022-07-29T12:58:30;30.70;72.30
38860;DHT22;24609;48.316;16.174;2022-07-29T13:01:08;30.50;95.50
38860;DHT22;24609;48.316;16.174;2022-07-29T13:03:44;30.20;99.90
38860;DHT22;24609;48.316;16.174;2022-07-29T13:09:19;29.10;99.90
38860;DHT22;24609;48.316;16.174;2022-07-29T13:11:52;28.70;99.90
38860;DHT22;24609;48.316;16.174;2022-07-29T13:14:33;28.50;99.90
38860;DHT22;24609;48.316;16.174;2022-07-29T13:17:05;28.20;99.90
38860;DHT22;24609;48.316;16.174;2022-07-29T13:19:42;27.90;99.90
38860;DHT22;24609;48.316;16.174;2022-07-29T13:22:16;27.50;1.00
38860;DHT22;24609;48.316;16.174;2022-07-29T13:27:22;26.80;1.00
38860;DHT22;24609;48.316;16.174;2022-07-29T13:29:49;26.40;80.10
38860;DHT22;24609;48.316;16.174;2022-07-29T13:32:18;26.20;99.90
38860;DHT22;24609;48.316;16.174;2022-07-29T13:34:43;25.80;1.00
38860;DHT22;24609;48.316;16.174;2022-07-29T13:37:09;25.70;16.60
38860;DHT22;24609;48.316;16.174;2022-07-29T13:39:35;25.50;99.90
38860;DHT22;24609;48.316;16.174;2022-07-29T13:42:00;25.40;99.90
38860;DHT22;24609;48.316;16.174;2022-07-29T13:44:26;25.20;99.90
38860;DHT22;24609;48.316;16.174;2022-07-29T13:46:52;25.10;1.00
38860;DHT22;24609;48.316;16.174;2022-07-29T13:49:17;24.90;99.90
38860;DHT22;24609;48.316;16.174;2022-07-29T13:51:43;24.80;99.90
38860;DHT22;24609;48.316;16.174;2022-07-29T13:54:09;24.50;1.00
38860;DHT22;24609;48.316;16.174;2022-07-29T13:56:34;24.30;99.90
38860;DHT22;24609;48.316;16.174;2022-07-29T13:59:00;24.00;99.90
38860;DHT22;24609;48.316;16.174;2022-07-29T14:01:26;23.80;99.90
38860;DHT22;24609;48.316;16.174;2022-07-29T14:03:52;23.50;1.00
38860;DHT22;24609;48.316;16.174;2022-07-29T14:06:18;23.50;18.80
38860;DHT22;24609;48.316;16.174;2022-07-29T14:08:44;23.30;1.00
38860;DHT22;24609;48.316;16.174;2022-07-29T14:11:10;23.10;75.10
38860;DHT22;24609;48.316;16.174;2022-07-29T14:13:35;22.90;99.90
38860;DHT22;24609;48.316;16.174;2022-07-29T14:16:01;22.90;99.90
38860;DHT22;24609;48.316;16.174;2022-07-29T14:18:27;22.90;99.90
38860;DHT22;24609;48.316;16.174;2022-07-29T14:20:52;22.20;99.90
38860;DHT22;24609;48.316;16.174;2022-07-29T14:23:18;21.60;99.90
38860;DHT22;24609;48.316;16.174;2022-07-29T14:25:44;21.20;99.90
38860;DHT22;24609;48.316;16.174;2022-07-29T14:28:10;21.10;99.90
38860;DHT22;24609;48.316;16.174;2022-07-29T14:30:35;21.00;99.90
38860;DHT22;24609;48.316;16.174;2022-07-29T14:33:01;21.00;99.90
38860;DHT22;24609;48.316;16.174;2022-07-29T14:35:27;20.90;99.90
38860;DHT22;24609;48.316;16.174;2022-07-29T14:37:53;20.70;99.90
38860;DHT22;24609;48.316;16.174;2022-07-29T14:40:18;20.80;99.90
38860;DHT22;24609;48.316;16.174;2022-07-29T14:42:44;20.80;99.90
38860;DHT22;24609;48.316;16.174;2022-07-29T14:45:10;20.80;99.90
38860;DHT22;24609;48.316;16.174;2022-07-29T14:47:37;20.90;99.90
38860;DHT22;24609;48.316;16.174;2022-07-29T14:50:04;20.90;99.90
38860;DHT22;24609;48.316;16.174;2022-07-29T14:52:30;21.30;99.90
38860;DHT22;24609;48.316;16.174;2022-07-29T14:54:56;21.50;99.90
38860;DHT22;24609;48.316;16.174;2022-07-29T14:57:21;21.70;99.90
38860;DHT22;24609;48.316;16.174;2022-07-29T14:59:47;21.80;99.90
38860;DHT22;24609;48.316;16.174;2022-07-29T15:02:13;21.70;99.90
38860;DHT22;24609;48.316;16.174;2022-07-29T15:04:38;21.70;99.90
38860;DHT22;24609;48.316;16.174;2022-07-29T15:07:04;21.70;99.90
38860;DHT22;24609;48.316;16.174;2022-07-29T15:09:30;21.50;99.90
38860;DHT22;24609;48.316;16.174;2022-07-29T15:11:56;21.30;99.90
38860;DHT22;24609;48.316;16.174;2022-07-29T15:14:21;21.20;99.90
38860;DHT22;24609;48.316;16.174;2022-07-29T15:16:47;21.20;99.90
38860;DHT22;24609;48.316;16.174;2022-07-29T15:19:13;21.40;99.90
38860;DHT22;24609;48.316;16.174;2022-07-29T15:21:39;21.50;99.90
38860;DHT22;24609;48.316;16.174;2022-07-29T15:24:04;21.50;99.90
38860;DHT22;24609;48.316;16.174;2022-07-29T15:26:32;21.50;99.90
38860;DHT22;24609;48.316;16.174;2022-07-29T15:28:58;21.50;99.90
38860;DHT22;24609;48.316;16.174;2022-07-29T15:31:24;21.50;99.90
38860;DHT22;24609;48.316;16.174;2022-07-29T15:33:50;21.60;99.90
38860;DHT22;24609;48.316;16.174;2022-07-29T15:36:16;21.70;99.90
38860;DHT22;24609;48.316;16.174;2022-07-29T15:38:41;21.90;99.90
38860;DHT22;24609;48.316;16.174;2022-07-29T15:41:07;22.50;99.90
38860;DHT22;24609;48.316;16.174;2022-07-29T15:43:33;22.90;99.90
38860;DHT22;24609;48.316;16.174;2022-07-29T15:46:01;23.20;99.90
38860;DHT22;24609;48.316;16.174;2022-07-29T15:48:47;23.60;99.90
38860;DHT22;24609;48.316;16.174;2022-07-29T15:51:12;23.80;99.90
38860;DHT22;24609;48.316;16.174;2022-07-29T15:53:38;24.00;99.90
38860;DHT22;24609;48.316;16.174;2022-07-29T15:56:04;24.00;99.90
38860;DHT22;24609;48.316;16.174;2022-07-29T15:58:29;24.10;99.90
38860;DHT22;24609;48.316;16.174;2022-07-29T16:00:55;24.40;99.90
38860;DHT22;24609;48.316;16.174;2022-07-29T16:03:21;24.30;99.90
38860;DHT22;24609;48.316;16.174;2022-07-29T16:05:47;24.30;99.90
38860;DHT22;24609;48.316;16.174;2022-07-29T16:08:13;24.60;99.90
38860;DHT22;24609;48.316;16.174;2022-07-29T16:10:39;25.30;98.60
38860;DHT22;24609;48.316;16.174;2022-07-29T16:13:05;25.10;99.90
38860;DHT22;24609;48.316;16.174;2022-07-29T16:15:31;25.20;99.90
38860;DHT22;24609;48.316;16.174;2022-07-29T16:17:57;24.90;99.90
38860;DHT22;24609;48.316;16.174;2022-07-29T16:20:22;24.60;99.90